createdAt,value
2022-09-10T00:02:01.945Z,100801.31
2022-09-10T00:04:28.618Z,100800.38
2022-09-10T00:06:55.669Z,100801.41
2022-09-10T00:09:25.304Z,100804.91
2022-09-10T00:11:51.728Z,100807.59
2022-09-10T00:14:21.300Z,100813.81
2022-09-10T00:16:48.489Z,100819.03
2022-09-10T00:19:15.584Z,100811.13
2022-09-10T00:21:44.321Z,100809.38
2022-09-10T00:24:10.834Z,100817.31
2022-09-10T00:26:40.685Z,100810.22
2022-09-10T00:29:09.535Z,100818.22
2022-09-10T00:31:36.375Z,100811.16
2022-09-10T00:34:03.845Z,100812.97
2022-09-10T00:36:33.164Z,100812.16
2022-09-10T00:39:02.421Z,100806.16
2022-09-10T00:41:29.863Z,100811.25
2022-09-10T00:44:05.249Z,100812.16
2022-09-10T00:46:37.880Z,100802.53
2022-09-10T00:49:17.843Z,100812.16
2022-09-10T00:51:44.585Z,100805.88
2022-09-10T00:54:11.372Z,100806.00
2022-09-10T00:56:37.850Z,100809.47
2022-09-10T00:59:04.805Z,100798.00
2022-09-10T01:01:33.666Z,100804.19
2022-09-10T01:04:00.761Z,100801.47
2022-09-10T01:06:27.704Z,100803.19
2022-09-10T01:08:54.130Z,100801.53
2022-09-10T01:11:26.676Z,100804.28
2022-09-10T01:14:32.349Z,100800.00
2022-09-10T01:17:22.070Z,100802.41
2022-09-10T01:20:16.430Z,100791.91
2022-09-10T01:23:17.578Z,100794.53
2022-09-10T01:26:12.610Z,100796.25
2022-09-10T01:28:51.438Z,100806.00
2022-09-10T01:31:33.097Z,100811.25
2022-09-10T01:34:33.064Z,100807.66
2022-09-10T01:37:05.593Z,100806.72
2022-09-10T01:39:32.388Z,100813.59
2022-09-10T01:41:58.944Z,100803.84
2022-09-10T01:44:49.049Z,100800.44
2022-09-10T01:47:24.632Z,100803.78
2022-09-10T01:49:58.387Z,100799.44
2022-09-10T01:52:42.258Z,100801.22
2022-09-10T01:55:08.754Z,100801.25
2022-09-10T01:57:57.611Z,100799.50
2022-09-10T02:00:25.121Z,100798.88
2022-09-10T02:03:14.010Z,100798.13
2022-09-10T02:05:42.398Z,100807.53
2022-09-10T02:08:15.904Z,100806.69
2022-09-10T02:10:54.080Z,100818.03
2022-09-10T02:13:22.641Z,100826.56
2022-09-10T02:15:52.038Z,100817.06
2022-09-10T02:18:22.360Z,100826.53
2022-09-10T02:20:51.438Z,100817.91
2022-09-10T02:23:21.910Z,100813.34
2022-09-10T02:25:49.459Z,100806.47
2022-09-10T02:28:16.254Z,100811.66
2022-09-10T02:30:42.688Z,100806.41
2022-09-10T02:33:09.172Z,100810.88
2022-09-10T02:35:35.648Z,100811.75
2022-09-10T02:38:02.153Z,100806.41
2022-09-10T02:40:31.830Z,100812.66
2022-09-10T02:42:58.354Z,100810.78
2022-09-10T02:45:25.182Z,100819.31
2022-09-10T02:47:51.714Z,100810.81
2022-09-10T02:50:18.560Z,100815.00
2022-09-10T02:52:51.347Z,100820.22
2022-09-10T02:55:18.117Z,100811.59
2022-09-10T02:57:45.411Z,100821.16
2022-09-10T03:00:12.204Z,100818.56
2022-09-10T03:02:38.652Z,100810.72
2022-09-10T03:05:05.528Z,100816.00
2022-09-10T03:07:32.482Z,100811.44
2022-09-10T03:09:58.932Z,100811.72
2022-09-10T03:12:25.382Z,100808.19
2022-09-10T03:14:53.339Z,100813.41
2022-09-10T03:17:19.840Z,100820.44
2022-09-10T03:19:46.293Z,100814.22
2022-09-10T03:22:12.778Z,100807.25
2022-09-10T03:24:39.205Z,100808.09
2022-09-10T03:27:06.876Z,100805.41
2022-09-10T03:29:33.537Z,100808.97
2022-09-10T03:32:01.194Z,100811.44
2022-09-10T03:34:27.622Z,100815.28
2022-09-10T03:36:54.549Z,100809.91
2022-09-10T03:39:21.020Z,100809.94
2022-09-10T03:41:47.937Z,100809.94
2022-09-10T03:44:14.510Z,100815.13
2022-09-10T03:46:41.348Z,100815.16
2022-09-10T03:49:08.243Z,100821.34
2022-09-10T03:51:35.242Z,100818.63
2022-09-10T03:54:02.540Z,100826.56
2022-09-10T03:56:29.010Z,100820.38
2022-09-10T03:58:55.450Z,100825.66
2022-09-10T04:01:21.968Z,100819.47
2022-09-10T04:03:48.798Z,100824.81
2022-09-10T04:06:16.346Z,100823.94
2022-09-10T04:08:45.664Z,100822.16
2022-09-10T04:11:13.798Z,100822.09
2022-09-10T04:13:40.251Z,100823.81
2022-09-10T04:16:06.941Z,100811.59
2022-09-10T04:18:34.330Z,100824.56
2022-09-10T04:21:00.926Z,100822.09
2022-09-10T04:23:27.465Z,100816.91
2022-09-10T04:25:53.938Z,100816.75
2022-09-10T04:28:20.422Z,100814.97
2022-09-10T04:30:47.150Z,100824.66
2022-09-10T04:33:13.821Z,100828.13
2022-09-10T04:35:40.279Z,100817.53
2022-09-10T04:38:08.087Z,100824.66
2022-09-10T04:40:34.822Z,100827.22
2022-09-10T04:43:01.442Z,100815.81
2022-09-10T04:45:27.933Z,100828.88
2022-09-10T04:47:54.395Z,100833.53
2022-09-10T04:50:21.923Z,100830.69
2022-09-10T04:52:48.436Z,100833.31
2022-09-10T04:55:15.656Z,100829.81
2022-09-10T04:57:42.271Z,100830.75
2022-09-10T05:00:09.338Z,100829.06
2022-09-10T05:02:37.661Z,100834.22
2022-09-10T05:05:04.438Z,100835.94
2022-09-10T05:07:31.019Z,100832.38
2022-09-10T05:09:57.455Z,100839.38
2022-09-10T05:12:24.267Z,100835.84
2022-09-10T05:14:50.724Z,100837.72
2022-09-10T05:17:17.173Z,100841.13
2022-09-10T05:19:43.609Z,100846.44
2022-09-10T05:22:10.207Z,100844.59
2022-09-10T05:24:36.828Z,100848.22
2022-09-10T05:27:03.500Z,100833.31
2022-09-10T05:29:29.940Z,100841.91
2022-09-10T05:31:56.486Z,100841.84
2022-09-10T05:34:23.024Z,100840.97
2022-09-10T05:36:49.542Z,100834.97
2022-09-10T05:39:16.010Z,100837.50
2022-09-10T05:41:43.629Z,100841.91
2022-09-10T05:44:10.050Z,100850.66
2022-09-10T05:46:36.505Z,100839.25
2022-09-10T05:49:02.931Z,100839.97
2022-09-10T05:51:30.757Z,100838.44
2022-09-10T05:53:57.739Z,100844.38
2022-09-10T05:56:25.756Z,100851.28
2022-09-10T05:58:52.218Z,100849.44
2022-09-10T06:01:18.913Z,100845.97
2022-09-10T06:03:45.443Z,100844.28
2022-09-10T06:06:12.077Z,100852.72
2022-09-10T06:08:40.023Z,100854.56
2022-09-10T06:11:07.480Z,100851.78
2022-09-10T06:13:35.409Z,100851.09
2022-09-10T06:16:02.450Z,100845.53
2022-09-10T06:18:29.029Z,100854.00
2022-09-10T06:21:07.016Z,100850.03
2022-09-10T06:23:34.023Z,100854.38
2022-09-10T06:26:09.690Z,100858.91
2022-09-10T06:28:36.441Z,100864.47
2022-09-10T06:31:06.496Z,100866.97
2022-09-10T06:33:33.422Z,100872.38
2022-09-10T06:36:01.480Z,100869.81
2022-09-10T06:38:30.069Z,100871.53
2022-09-10T06:41:00.125Z,100865.91
2022-09-10T06:43:27.582Z,100864.69
2022-09-10T06:45:55.017Z,100875.91
2022-09-10T06:48:40.029Z,100867.91
2022-09-10T06:51:13.297Z,100872.28
2022-09-10T06:53:41.142Z,100881.63
2022-09-10T06:56:10.493Z,100878.09
2022-09-10T06:58:37.050Z,100885.63
2022-09-10T07:01:14.689Z,100884.13
2022-09-10T07:03:43.502Z,100888.66
2022-09-10T07:06:19.396Z,100889.03
2022-09-10T07:08:45.839Z,100891.00
2022-09-10T07:11:14.682Z,100897.50
2022-09-10T07:13:43.035Z,100893.28
2022-09-10T07:16:10.152Z,100897.38
2022-09-10T07:18:37.053Z,100894.34
2022-09-10T07:21:14.065Z,100890.72
2022-09-10T07:23:41.240Z,100899.13
2022-09-10T07:26:11.427Z,100896.72
2022-09-10T07:28:38.970Z,100907.00
2022-09-10T07:31:18.666Z,100895.38
2022-09-10T07:33:45.775Z,100907.72
2022-09-10T07:36:15.077Z,100907.53
2022-09-10T07:38:42.392Z,100907.34
2022-09-10T07:41:11.365Z,100911.97
2022-09-10T07:43:39.210Z,100920.06
2022-09-10T07:46:07.056Z,100916.47
2022-09-10T07:48:34.176Z,100919.16
2022-09-10T07:51:02.495Z,100912.56
2022-09-10T07:53:28.952Z,100920.78
2022-09-10T07:56:03.565Z,100926.00
2022-09-10T07:58:31.739Z,100919.81
2022-09-10T08:00:59.754Z,100921.22
2022-09-10T08:03:27.507Z,100918.78
2022-09-10T08:05:54.197Z,100929.13
2022-09-10T08:08:21.237Z,100928.59
2022-09-10T08:10:48.709Z,100932.50
2022-09-10T08:13:15.703Z,100928.22
2022-09-10T08:15:45.616Z,100928.13
2022-09-10T08:18:13.624Z,100934.69
2022-09-10T08:20:40.430Z,100939.28
2022-09-10T08:23:07.628Z,100935.72
2022-09-10T08:25:34.749Z,100940.03
2022-09-10T08:28:01.286Z,100949.59
2022-09-10T08:30:28.591Z,100949.47
2022-09-10T08:32:56.176Z,100951.13
2022-09-10T08:35:22.620Z,100949.25
2022-09-10T08:37:49.205Z,100952.44
2022-09-10T08:40:16.380Z,100960.91
2022-09-10T08:42:48.197Z,100960.34
2022-09-10T08:45:24.190Z,100960.91
2022-09-10T08:47:59.161Z,100964.03
2022-09-10T08:51:00.277Z,100962.72
2022-09-10T08:53:53.870Z,100963.75
2022-09-10T08:56:22.696Z,100963.00
2022-09-10T08:59:04.234Z,100970.22
2022-09-10T09:01:35.732Z,100972.22
2022-09-10T09:04:09.872Z,100965.75
2022-09-10T09:06:41.597Z,100962.25
2022-09-10T09:09:14.778Z,100966.72
2022-09-10T09:12:15.695Z,100959.25
2022-09-10T09:14:58.926Z,100958.31
2022-09-10T09:17:59.757Z,100961.03
2022-09-10T09:20:52.595Z,100955.38
2022-09-10T09:23:25.085Z,100964.06
2022-09-10T09:25:59.219Z,100957.78
2022-09-10T09:28:54.991Z,100962.13
2022-09-10T09:31:31.155Z,100960.69
2022-09-10T09:34:07.160Z,100958.91
2022-09-10T09:36:37.882Z,100954.53
2022-09-10T09:39:22.848Z,100952.25
2022-09-10T09:42:09.553Z,100947.09
2022-09-10T09:44:39.693Z,100957.75
2022-09-10T09:47:08.362Z,100955.09
2022-09-10T09:49:35.416Z,100961.09
2022-09-10T09:52:06.221Z,100955.56
2022-09-10T09:55:03.303Z,100962.56
2022-09-10T09:57:20.938Z,100960.00
2022-09-10T09:59:49.453Z,100968.81
2022-09-10T10:02:24.062Z,100970.63
2022-09-10T10:04:57.429Z,100971.44
2022-09-10T10:07:32.571Z,100970.69
2022-09-10T10:10:03.541Z,100970.75
2022-09-10T10:12:33.396Z,100971.81
2022-09-10T10:15:02.684Z,100978.69
2022-09-10T10:17:39.289Z,100973.22
2022-09-10T10:20:14.402Z,100965.38
2022-09-10T10:22:42.590Z,100972.66
2022-09-10T10:25:38.410Z,100975.19
2022-09-10T10:28:24.105Z,100968.63
2022-09-10T10:30:52.750Z,100973.63
2022-09-10T10:33:25.845Z,100978.56
2022-09-10T10:36:17.554Z,100975.25
2022-09-10T10:38:58.048Z,100959.66
2022-09-10T10:41:42.085Z,100969.97
2022-09-10T10:44:17.449Z,100967.19
2022-09-10T10:46:58.488Z,100959.13
2022-09-10T10:49:56.046Z,100961.69
2022-09-10T10:52:28.956Z,100974.03
2022-09-10T10:55:17.350Z,100975.41
2022-09-10T10:58:15.569Z,100968.09
2022-09-10T11:01:18.160Z,100973.59
2022-09-10T11:03:48.836Z,100979.41
2022-09-10T11:06:20.438Z,100979.63
2022-09-10T11:08:51.905Z,100972.22
2022-09-10T11:11:31.699Z,100968.38
2022-09-10T11:14:26.093Z,100976.72
2022-09-10T11:16:58.902Z,100975.72
2022-09-10T11:19:25.604Z,100977.19
2022-09-10T11:22:01.239Z,100970.69
2022-09-10T11:25:07.584Z,100979.50
2022-09-10T11:27:38.821Z,100973.94
2022-09-10T11:30:19.266Z,100971.31
2022-09-10T11:32:48.744Z,100970.66
2022-09-10T11:35:34.395Z,100967.41
2022-09-10T11:38:07.905Z,100963.13
2022-09-10T11:40:39.258Z,100958.28
2022-09-10T11:43:33.157Z,100955.94
2022-09-10T11:46:08.293Z,100951.56
2022-09-10T11:48:42.770Z,100959.03
2022-09-10T11:51:38.056Z,100946.34
2022-09-10T11:54:07.294Z,100949.06
2022-09-10T11:56:36.866Z,100955.06
2022-09-10T11:59:19.977Z,100950.84
2022-09-10T12:02:02.859Z,100951.25
2022-09-10T12:04:39.362Z,100951.44
2022-09-10T12:07:28.709Z,100955.97
2022-09-10T12:10:14.148Z,100953.06
2022-09-10T12:12:45.118Z,100956.66
2022-09-10T12:15:23.088Z,100943.69
2022-09-10T12:17:54.485Z,100944.03
2022-09-10T12:20:27.974Z,100940.94
2022-09-10T12:22:55.445Z,100947.97
2022-09-10T12:25:21.848Z,100942.19
2022-09-10T12:27:53.581Z,100943.41
2022-09-10T12:30:33.611Z,100940.56
2022-09-10T12:33:03.000Z,100946.50
2022-09-10T12:35:35.462Z,100953.63
2022-09-10T12:38:42.942Z,100952.75
2022-09-10T12:41:14.521Z,100954.31
2022-09-10T12:43:41.053Z,100952.69
2022-09-10T12:46:07.931Z,100949.72
2022-09-10T12:48:37.128Z,100956.31
2022-09-10T12:51:13.964Z,100960.44
2022-09-10T12:54:07.445Z,100961.41
2022-09-10T12:56:33.978Z,100956.66
2022-09-10T12:59:19.222Z,100962.69
2022-09-10T13:01:47.847Z,100957.41
2022-09-10T13:04:34.670Z,100952.75
2022-09-10T13:07:04.807Z,100959.47
2022-09-10T13:09:38.233Z,100949.53
2022-09-10T13:12:18.363Z,100946.47
2022-09-10T13:14:48.112Z,100946.69
2022-09-10T13:17:54.452Z,100944.81
2022-09-10T13:20:20.910Z,100942.38
2022-09-10T13:23:06.650Z,100938.25
2022-09-10T13:25:42.668Z,100947.06
2022-09-10T13:28:31.365Z,100945.63
2022-09-10T13:31:01.813Z,100940.72
2022-09-10T13:33:34.273Z,100940.81
2022-09-10T13:36:32.970Z,100938.97
2022-09-10T13:39:16.021Z,100933.13
2022-09-10T13:42:10.905Z,100946.03
2022-09-10T13:45:09.814Z,100933.56
2022-09-10T13:47:58.798Z,100943.91
2022-09-10T13:50:27.961Z,100940.66
2022-09-10T13:52:57.916Z,100934.34
2022-09-10T13:55:29.810Z,100939.53
2022-09-10T13:58:06.258Z,100949.50
2022-09-10T14:00:40.187Z,100950.47
2022-09-10T14:03:15.036Z,100943.84
2022-09-10T14:05:52.300Z,100948.69
2022-09-10T14:08:24.809Z,100958.63
2022-09-10T14:11:06.514Z,100959.50
2022-09-10T14:13:35.734Z,100955.00
2022-09-10T14:16:04.533Z,100960.72
2022-09-10T14:18:40.763Z,100956.72
2022-09-10T14:21:07.285Z,100959.94
2022-09-10T14:23:33.874Z,100962.75
2022-09-10T14:26:15.771Z,100965.53
2022-09-10T14:28:53.545Z,100965.56
2022-09-10T14:31:31.669Z,100960.56
2022-09-10T14:33:59.412Z,100962.19
2022-09-10T14:39:14.303Z,100971.47
2022-09-10T14:41:40.900Z,100965.97
2022-09-10T14:44:29.764Z,100975.25
2022-09-10T14:46:58.912Z,100972.25
2022-09-10T14:49:30.991Z,100979.78
2022-09-10T14:51:59.364Z,100980.25
2022-09-10T14:54:27.566Z,100983.91
2022-09-10T14:56:55.846Z,100976.09
2022-09-10T14:59:36.369Z,100981.16
2022-09-10T15:02:11.666Z,100975.47
2022-09-10T15:04:38.946Z,100975.84
2022-09-10T15:07:05.506Z,100981.50
2022-09-10T15:09:31.992Z,100985.00
2022-09-10T15:12:11.987Z,100991.72
2022-09-10T15:14:38.933Z,100993.09
2022-09-10T15:17:05.498Z,100983.56
2022-09-10T15:19:32.075Z,100983.66
2022-09-10T15:21:58.722Z,100989.94
2022-09-10T15:24:25.982Z,101007.50
2022-09-10T15:26:52.582Z,100998.09
2022-09-10T15:29:19.102Z,101000.13
2022-09-10T15:31:45.594Z,100999.16
2022-09-10T15:34:12.295Z,101001.19
2022-09-10T15:36:40.098Z,101006.94
2022-09-10T15:39:08.130Z,100999.34
2022-09-10T15:41:34.558Z,101014.94
2022-09-10T15:44:03.562Z,101009.16
2022-09-10T15:46:30.743Z,101020.22
2022-09-10T15:48:58.841Z,101024.00
2022-09-10T15:51:25.575Z,101025.47
2022-09-10T15:53:53.135Z,101024.81
2022-09-10T15:56:21.081Z,101026.38
2022-09-10T15:58:52.375Z,101023.16
2022-09-10T16:01:19.142Z,101030.78
2022-09-10T16:03:48.013Z,101029.84
2022-09-10T16:06:15.855Z,101039.78
2022-09-10T16:08:42.514Z,101039.00
2022-09-10T16:11:11.809Z,101039.91
2022-09-10T16:13:39.755Z,101038.44
2022-09-10T16:16:11.335Z,101039.06
2022-09-10T16:18:38.098Z,101043.41
2022-09-10T16:21:09.355Z,101043.59
2022-09-10T16:23:37.476Z,101050.88
2022-09-10T16:26:06.033Z,101050.69
2022-09-10T16:28:33.877Z,101053.56
2022-09-10T16:31:15.360Z,101046.13
2022-09-10T16:33:42.798Z,101049.06
2022-09-10T16:36:10.966Z,101051.44
2022-09-10T16:38:37.805Z,101049.59
2022-09-10T16:47:45.178Z,101064.59
2022-09-10T16:50:20.187Z,101046.34
2022-09-10T16:52:49.140Z,101059.31
2022-09-10T16:55:16.316Z,101063.03
2022-09-10T16:57:42.799Z,101057.66
2022-09-10T17:00:11.125Z,101069.34
2022-09-10T17:02:37.777Z,101074.00
2022-09-10T17:05:05.083Z,101077.31
2022-09-10T17:07:31.922Z,101074.38
2022-09-10T17:10:00.844Z,101076.69
2022-09-10T17:12:28.235Z,101074.16
2022-09-10T17:14:54.664Z,101083.13
2022-09-10T17:17:21.150Z,101091.72
2022-09-10T17:19:47.717Z,101079.97
2022-09-10T17:22:14.179Z,101085.44
2022-09-10T17:24:41.176Z,101074.19
2022-09-10T17:27:07.629Z,101079.34
2022-09-10T17:29:34.221Z,101082.59
2022-09-10T17:32:00.690Z,101079.59
2022-09-10T17:34:28.141Z,101085.75
2022-09-10T17:36:54.861Z,101079.63
2022-09-10T17:39:21.392Z,101079.47
2022-09-10T17:41:48.416Z,101085.13
2022-09-10T17:44:16.662Z,101089.38
2022-09-10T17:46:43.288Z,101092.63
2022-09-10T17:49:12.968Z,101097.25
2022-09-10T17:51:39.756Z,101099.38
2022-09-10T17:54:07.266Z,101094.34
2022-09-10T17:56:34.070Z,101100.47
2022-09-10T17:59:02.967Z,101097.16
2022-09-10T18:01:36.441Z,101090.59
2022-09-10T18:04:04.152Z,101095.38
2022-09-10T18:06:32.312Z,101093.78
2022-09-10T18:09:00.460Z,101097.41
2022-09-10T18:11:40.565Z,101095.78
2022-09-10T18:14:08.395Z,101096.72
2022-09-10T18:16:36.334Z,101092.34
2022-09-10T18:19:12.917Z,101099.53
2022-09-10T18:21:41.446Z,101106.19
2022-09-10T18:24:23.683Z,101101.38
2022-09-10T18:26:52.094Z,101107.56
2022-09-10T18:29:27.825Z,101114.44
2022-09-10T18:31:56.601Z,101127.03
2022-09-10T18:34:26.999Z,101122.63
2022-09-10T18:36:56.556Z,101126.63
2022-09-10T18:39:24.246Z,101134.94
2022-09-10T18:41:52.182Z,101136.81
2022-09-10T18:44:21.771Z,101148.00
2022-09-10T18:46:49.731Z,101147.59
2022-09-10T18:49:21.203Z,101149.38
2022-09-10T18:51:48.531Z,101169.66
2022-09-10T18:54:16.489Z,101163.66
2022-09-10T18:56:44.859Z,101163.75
2022-09-10T18:59:13.061Z,101169.56
2022-09-10T19:01:43.181Z,101180.44
2022-09-10T19:04:11.329Z,101172.53
2022-09-10T19:06:40.812Z,101179.81
2022-09-10T19:09:09.883Z,101179.59
2022-09-10T19:11:38.967Z,101176.09
2022-09-10T19:14:13.381Z,101175.22
2022-09-10T19:16:41.358Z,101174.00
2022-09-10T19:19:08.308Z,101180.34
2022-09-10T19:21:38.386Z,101174.72
2022-09-10T19:24:04.938Z,101180.97
2022-09-10T19:26:33.585Z,101186.53
2022-09-10T19:29:01.671Z,101186.63
2022-09-10T19:31:30.105Z,101189.91
2022-09-10T19:34:01.789Z,101195.38
2022-09-10T19:36:30.841Z,101196.38
2022-09-10T19:38:57.838Z,101199.00
2022-09-10T19:41:25.549Z,101199.88
2022-09-10T19:43:53.846Z,101190.38
2022-09-10T19:46:21.890Z,101193.31
2022-09-10T19:48:48.694Z,101190.59
2022-09-10T19:51:17.467Z,101189.50
2022-09-10T19:53:43.971Z,101189.41
2022-09-10T19:56:18.306Z,101190.53
2022-09-10T19:58:49.711Z,101195.72
2022-09-10T20:01:23.865Z,101193.09
2022-09-10T20:03:51.006Z,101180.75
2022-09-10T20:06:19.364Z,101185.97
2022-09-10T20:08:50.679Z,101190.56
2022-09-10T20:11:22.858Z,101188.59
2022-09-10T20:13:50.059Z,101182.63
2022-09-10T20:16:17.085Z,101185.09
2022-09-10T20:18:43.630Z,101187.06
2022-09-10T20:21:16.165Z,101185.28
2022-09-10T20:23:47.553Z,101190.63
2022-09-10T20:26:16.693Z,101191.69
2022-09-10T20:28:43.606Z,101182.16
2022-09-10T20:31:12.021Z,101190.00
2022-09-10T20:33:40.261Z,101198.91
2022-09-10T20:36:11.067Z,101195.28
2022-09-10T20:38:38.265Z,101192.69
2022-09-10T20:41:05.802Z,101198.91
2022-09-10T20:43:32.595Z,101194.50
2022-09-10T20:45:59.127Z,101198.16
2022-09-10T20:48:25.779Z,101204.28
2022-09-10T20:50:57.920Z,101201.56
2022-09-10T20:53:25.090Z,101195.56
2022-09-10T20:55:51.624Z,101206.16
2022-09-10T20:58:18.825Z,101196.50
2022-09-10T21:00:45.554Z,101202.69
2022-09-10T21:03:12.706Z,101206.97
2022-09-10T21:05:39.417Z,101212.34
2022-09-10T21:08:06.223Z,101226.50
2022-09-10T21:10:37.337Z,101224.66
2022-09-10T21:13:04.761Z,101231.66
2022-09-10T21:15:31.428Z,101231.63
2022-09-10T21:17:58.463Z,101226.44
2022-09-10T21:20:25.036Z,101222.25
2022-09-10T21:22:51.531Z,101228.31
2022-09-10T21:25:19.193Z,101232.63
2022-09-10T21:27:46.885Z,101239.78
2022-09-10T21:30:13.508Z,101235.31
2022-09-10T21:32:40.582Z,101243.22
2022-09-10T21:35:07.482Z,101243.16
2022-09-10T21:37:33.982Z,101247.44
2022-09-10T21:40:01.142Z,101244.84
2022-09-10T21:42:28.269Z,101244.00
2022-09-10T21:44:54.781Z,101249.38
2022-09-10T21:47:21.364Z,101246.75
2022-09-10T21:49:48.451Z,101252.84
2022-09-10T21:52:15.181Z,101252.00
2022-09-10T21:54:41.909Z,101255.56
2022-09-10T21:57:10.963Z,101252.16
2022-09-10T21:59:37.576Z,101252.16
2022-09-10T22:02:08.099Z,101249.50
2022-09-10T22:04:34.922Z,101251.91
2022-09-10T22:07:04.675Z,101256.53
2022-09-10T22:09:32.078Z,101263.47
2022-09-10T22:11:59.202Z,101256.31
2022-09-10T22:14:25.975Z,101265.19
2022-09-10T22:16:52.639Z,101266.06
2022-09-10T22:19:22.426Z,101273.00
2022-09-10T22:21:49.185Z,101266.03
2022-09-10T22:24:18.518Z,101261.59
2022-09-10T22:26:45.470Z,101265.19
2022-09-10T22:29:12.663Z,101268.72
2022-09-10T22:31:39.161Z,101268.84
2022-09-10T22:34:08.401Z,101270.63
2022-09-10T22:36:39.545Z,101282.00
2022-09-10T22:39:14.633Z,101273.25
2022-09-10T22:41:41.904Z,101275.94
2022-09-10T22:44:09.001Z,101274.22
2022-09-10T22:46:36.433Z,101282.06
2022-09-10T22:49:04.369Z,101279.44
2022-09-10T22:51:35.104Z,101272.44
2022-09-10T22:54:02.804Z,101289.13
2022-09-10T22:56:29.694Z,101281.28
2022-09-10T22:58:57.928Z,101276.88
2022-09-10T23:01:29.668Z,101271.56
2022-09-10T23:04:00.424Z,101282.97
2022-09-10T23:06:29.151Z,101272.44
2022-09-10T23:08:58.111Z,101286.50
2022-09-10T23:11:27.030Z,101284.78
2022-09-10T23:13:59.417Z,101286.53
2022-09-10T23:16:34.484Z,101297.06
2022-09-10T23:19:03.977Z,101298.78
2022-09-10T23:21:31.930Z,101296.16
2022-09-10T23:24:00.629Z,101302.31
2022-09-10T23:26:27.412Z,101304.94
2022-09-10T23:28:54.767Z,101303.16
2022-09-10T23:31:26.122Z,101305.78
2022-09-10T23:34:00.680Z,101299.66
2022-09-10T23:36:29.975Z,101292.63
2022-09-10T23:38:57.683Z,101303.19
2022-09-10T23:41:25.909Z,101311.06
2022-09-10T23:43:52.390Z,101311.03
2022-09-10T23:46:18.915Z,101308.41
2022-09-10T23:48:46.358Z,101307.56
2022-09-10T23:51:14.162Z,101308.44
2022-09-10T23:53:40.685Z,101321.59
2022-09-10T23:56:07.285Z,101310.19
2022-09-10T23:58:33.732Z,101324.22
